Time;durP1;ratioP1;P1;durP2;ratioP2;P2;SDS_P1;SDS_P2;PMS_P1;PMS_P2;Temp;Humidity;BMP_temperature;BMP_pressure;BME280_temperature;BME280_humidity;BME280_pressure;Samples;Min_cycle;Max_cycle;Signal;HPM_P1;HPM_P2
2023/09/02 00:00:28;;;;;;;6.43;4.20;;;16.90;99.90;;;16.65;99.70;98077.00;5014935;28;20463;-71
2023/09/02 00:02:55;;;;;;;4.37;3.97;;;16.80;99.90;;;16.70;99.05;98079.78;5012173;28;20474;-71
2023/09/02 00:05:22;;;;;;;3.93;3.53;;;16.90;99.90;;;16.56;99.89;98073.06;5028878;27;20935;-71
2023/09/02 00:07:49;;;;;;;7.10;4.23;;;16.80;99.90;;;16.69;99.17;98075.41;5018415;28;20491;-70
2023/09/02 00:10:17;;;;;;;5.50;3.97;;;16.90;99.90;;;16.56;99.02;98053.97;5029487;28;20457;-70
2023/09/02 00:12:44;;;;;;;5.70;4.00;;;16.80;99.90;;;16.61;99.41;98075.03;5014997;28;20463;-72
2023/09/02 00:15:11;;;;;;;4.10;3.30;;;16.80;99.90;;;16.56;99.13;98070.34;5034031;27;20465;-69
2023/09/02 00:17:40;;;;;;;4.50;3.40;;;16.80;99.80;;;16.57;98.76;98066.53;5044622;27;20586;-70
2023/09/02 00:20:09;;;;;;;4.73;3.80;;;16.80;99.40;;;16.68;98.06;98065.59;5019982;28;20456;-70
2023/09/02 00:22:36;;;;;;;3.50;3.20;;;16.80;98.90;;;16.73;97.28;98061.25;5018799;28;22547;-71
2023/09/02 00:25:04;;;;;;;4.30;3.90;;;16.90;98.50;;;16.60;97.72;98063.28;5039313;28;20490;-71
2023/09/02 00:27:31;;;;;;;4.37;3.87;;;16.90;98.50;;;16.55;98.38;98072.25;5019733;28;20948;-71
2023/09/02 00:29:58;;;;;;;4.63;3.80;;;16.80;98.60;;;16.53;98.04;98068.13;5019157;28;20446;-71
2023/09/02 00:32:25;;;;;;;3.67;3.33;;;16.80;98.70;;;16.49;98.69;98064.25;5017921;28;20460;-69
2023/09/02 00:34:54;;;;;;;4.07;3.67;;;16.70;98.90;;;16.49;98.11;98067.78;5017753;28;20439;-71
2023/09/02 00:37:21;;;;;;;5.63;4.30;;;16.70;98.80;;;16.38;98.72;98076.94;5005555;28;20456;-70
2023/09/02 00:39:48;;;;;;;3.60;3.30;;;16.60;99.10;;;16.31;98.88;98074.41;5020877;28;20447;-70
2023/09/02 00:42:20;;;;;;;6.47;4.23;;;16.60;98.90;;;16.33;98.91;98079.56;5009320;28;20466;-70
2023/09/02 00:44:48;;;;;;;5.80;4.20;;;16.50;99.40;;;16.28;99.07;98073.00;5014256;28;20599;-71
2023/09/02 00:47:15;;;;;;;5.30;3.90;;;16.50;99.70;;;16.23;99.80;98075.66;5032429;28;20505;-70
2023/09/02 00:49:43;;;;;;;4.00;3.50;;;16.40;99.90;;;16.21;99.63;98085.16;5021508;28;20480;-74
2023/09/02 00:52:12;;;;;;;4.30;3.83;;;16.40;99.90;;;16.20;99.10;98076.13;5036984;28;20467;-71
2023/09/02 00:54:39;;;;;;;5.47;3.27;;;16.30;99.90;;;16.12;99.68;98073.84;5046151;28;20473;-71
2023/09/02 00:57:07;;;;;;;4.20;3.50;;;16.20;99.90;;;16.14;99.96;98071.69;5008831;28;20925;-71
2023/09/02 00:59:35;;;;;;;4.00;3.37;;;16.20;99.90;;;16.09;99.81;98067.00;5018463;28;20513;-71
2023/09/02 01:02:04;;;;;;;4.00;3.60;;;16.20;99.90;;;16.12;100.00;98085.56;5002920;28;20458;-69
2023/09/02 01:04:33;;;;;;;4.40;3.60;;;16.20;99.90;;;16.13;99.98;98068.13;5012330;28;20779;-69
2023/09/02 01:07:02;;;;;;;4.80;4.00;;;16.30;99.90;;;15.74;100.00;98035.38;5011703;28;20461;-71
2023/09/02 01:09:31;;;;;;;4.00;3.47;;;16.20;99.90;;;16.05;100.00;98071.28;5020495;28;20872;-73
2023/09/02 01:11:58;;;;;;;5.20;3.30;;;16.20;99.90;;;15.84;100.00;98045.63;5009655;28;20524;-71
2023/09/02 01:14:26;;;;;;;4.40;3.83;;;16.10;99.90;;;15.94;100.00;98077.66;5007709;28;20463;-70
2023/09/02 01:16:53;;;;;;;4.10;3.70;;;16.10;99.90;;;15.86;100.00;98076.16;5009455;28;21112;-70
2023/09/02 01:19:22;;;;;;;4.17;3.77;;;16.00;99.90;;;15.83;100.00;98082.09;5003033;28;20449;-70
2023/09/02 01:22:12;;;;;;;6.20;3.73;;;15.90;99.90;;;15.74;100.00;98076.25;5000876;28;20507;-71
2023/09/02 01:24:55;;;;;;;4.13;3.73;;;16.00;99.90;;;15.76;100.00;98087.72;5009378;28;21148;-72
2023/09/02 01:27:28;;;;;;;4.27;3.87;;;15.90;99.90;;;15.70;100.00;98078.63;5002738;28;20542;-71
2023/09/02 01:30:02;;;;;;;3.70;3.40;;;15.90;99.90;;;15.68;100.00;98093.56;5005563;28;20462;-71
2023/09/02 01:32:39;;;;;;;4.40;4.00;;;15.80;99.90;;;15.52;100.00;98087.84;5021516;28;20818;-72
2023/09/02 01:35:07;;;;;;;6.30;3.90;;;15.70;99.90;;;15.40;100.00;98100.72;5000338;28;20474;-72
2023/09/02 01:37:42;;;;;;;7.17;3.50;;;15.60;99.90;;;15.38;100.00;98098.25;5034168;27;20517;-71
2023/09/02 01:40:12;;;;;;;4.67;3.97;;;15.50;99.90;;;15.33;100.00;98102.75;5009540;28;20932;-72
2023/09/02 01:42:43;;;;;;;4.33;3.93;;;15.40;99.90;;;15.24;100.00;98105.06;5004441;28;20482;-72
2023/09/02 01:45:12;;;;;;;4.70;3.50;;;15.40;99.90;;;14.83;100.00;98034.38;5007954;28;20482;-72
2023/09/02 01:47:40;;;;;;;6.37;4.03;;;15.30;99.90;;;15.14;100.00;98105.69;5011395;28;20455;-71
2023/09/02 01:50:11;;;;;;;3.93;3.63;;;15.30;99.90;;;15.00;100.00;98103.25;5010247;28;20466;-71
2023/09/02 01:52:38;;;;;;;6.13;3.50;;;15.20;99.90;;;14.62;100.00;98042.09;5011174;28;20449;-72
2023/09/02 01:55:07;;;;;;;8.30;4.57;;;15.10;99.90;;;15.08;100.00;98099.31;5015750;28;20463;-70
2023/09/02 01:57:35;;;;;;;3.83;3.50;;;15.10;99.90;;;15.15;100.00;98099.19;5020599;28;20459;-72
2023/09/02 02:00:05;;;;;;;5.10;3.43;;;15.20;99.90;;;15.18;100.00;98104.13;5007000;28;20470;-71
2023/09/02 02:02:32;;;;;;;4.73;3.40;;;15.10;99.90;;;15.22;100.00;98102.56;5011241;28;20444;-70
2023/09/02 02:05:03;;;;;;;5.47;3.87;;;15.20;99.90;;;15.20;100.00;98107.44;5021059;28;20977;-70
2023/09/02 02:07:36;;;;;;;4.70;4.30;;;15.20;99.90;;;15.25;100.00;98110.28;5023951;28;20962;-71
2023/09/02 02:10:08;;;;;;;4.70;3.57;;;15.30;99.90;;;15.13;100.00;98117.66;5037803;27;20947;-69
2023/09/02 02:12:38;;;;;;;3.63;3.40;;;15.20;99.90;;;15.15;100.00;98121.75;5035300;27;20508;-69
2023/09/02 02:15:11;;;;;;;4.93;4.00;;;15.20;99.90;;;15.18;100.00;98106.84;5019834;28;20465;-74
2023/09/02 02:17:39;;;;;;;5.33;4.77;;;15.20;99.90;;;15.17;100.00;98115.28;5019885;28;20476;-71
2023/09/02 02:20:09;;;;;;;5.10;4.60;;;15.20;99.90;;;15.10;100.00;98112.69;5007100;28;20464;-74
2023/09/02 02:22:36;;;;;;;5.60;4.43;;;15.20;99.90;;;15.04;100.00;98121.81;5011294;28;20537;-70
2023/09/02 02:25:04;;;;;;;4.17;3.60;;;15.10;99.90;;;14.90;100.00;98124.81;5008010;28;20540;-71
2023/09/02 02:27:32;;;;;;;4.47;3.87;;;15.00;99.90;;;14.89;100.00;98116.91;5040243;27;20496;-68
2023/09/02 02:29:59;;;;;;;6.50;4.60;;;14.90;99.90;;;14.81;100.00;98118.94;5027220;28;20446;-70
2023/09/02 02:32:28;;;;;;;4.47;3.73;;;14.90;99.90;;;14.83;100.00;98129.56;5009659;28;20506;-70
2023/09/02 02:34:55;;;;;;;4.80;4.33;;;14.90;99.90;;;14.83;100.00;98127.66;5010423;28;20442;-71
2023/09/02 02:37:22;;;;;;;5.00;4.50;;;14.80;99.90;;;14.86;100.00;98126.38;5002146;28;20467;-73
2023/09/02 02:39:49;;;;;;;4.97;4.23;;;14.90;99.90;;;14.85;100.00;98128.25;5001572;28;20447;-70
2023/09/02 02:42:18;;;;;;;4.70;4.00;;;14.90;99.90;;;14.81;100.00;98131.72;5017683;28;20633;-71
2023/09/02 02:44:45;;;;;;;5.27;4.50;;;14.90;99.90;;;14.77;100.00;98139.53;5019671;28;20535;-72
2023/09/02 02:47:12;;;;;;;5.53;4.30;;;14.90;99.90;;;14.75;100.00;98128.06;5002617;28;20470;-70
2023/09/02 02:49:41;;;;;;;6.33;5.03;;;14.80;99.90;;;14.67;100.00;98126.50;5014159;28;20940;-70
2023/09/02 02:52:08;;;;;;;5.30;4.40;;;14.80;99.90;;;14.56;100.00;98130.06;5009208;28;20530;-70
2023/09/02 02:54:37;;;;;;;4.83;4.43;;;14.70;99.90;;;14.41;100.00;98120.50;5010900;28;20513;-71
2023/09/02 02:57:04;;;;;;;5.47;4.97;;;14.60;99.90;;;14.36;100.00;98128.56;5007408;28;20914;-70
2023/09/02 02:59:31;;;;;;;7.30;5.27;;;14.40;99.90;;;14.55;100.00;98128.41;5006118;28;20467;-74
2023/09/02 03:01:58;;;;;;;5.13;4.63;;;14.50;99.90;;;14.53;100.00;98120.47;5000935;28;20454;-71
2023/09/02 03:04:26;;;;;;;5.23;4.83;;;14.60;99.90;;;14.52;100.00;98129.72;5007376;28;20474;-70
2023/09/02 03:06:54;;;;;;;5.93;4.90;;;14.60;99.90;;;14.40;100.00;98137.03;5027330;28;20443;-70
2023/09/02 03:09:21;;;;;;;7.10;5.57;;;14.50;99.90;;;14.31;100.00;98134.69;5005259;28;20463;-71
2023/09/02 03:11:49;;;;;;;6.07;5.43;;;14.40;99.90;;;14.28;100.00;98140.63;5009317;28;20459;-74
2023/09/02 03:14:16;;;;;;;5.60;5.10;;;14.40;99.90;;;14.17;100.00;98123.22;5004495;28;20451;-72
2023/09/02 03:16:43;;;;;;;8.53;5.43;;;14.40;99.90;;;14.23;100.00;98145.09;5033618;28;20517;-70
2023/09/02 03:19:10;;;;;;;5.97;4.27;;;14.30;99.90;;;14.17;100.00;98147.69;5005462;28;22154;-71
2023/09/02 03:21:38;;;;;;;5.33;4.80;;;14.20;99.90;;;14.09;100.00;98144.47;5009622;28;20447;-73
2023/09/02 03:24:06;;;;;;;5.80;4.77;;;14.20;99.90;;;14.04;100.00;98145.22;5008054;28;20474;-71
2023/09/02 03:26:33;;;;;;;6.90;5.27;;;14.20;99.90;;;14.05;100.00;98146.03;5014080;28;20578;-72
2023/09/02 03:29:01;;;;;;;7.80;4.33;;;14.20;99.90;;;14.11;100.00;98151.34;5009462;28;20811;-71
2023/09/02 03:31:28;;;;;;;4.53;4.13;;;14.20;99.90;;;14.06;100.00;98150.41;5006447;28;20532;-72
2023/09/02 03:33:55;;;;;;;5.77;4.80;;;14.20;99.90;;;14.07;100.00;98150.16;5009117;28;20549;-71
2023/09/02 03:36:22;;;;;;;4.87;4.40;;;14.20;99.90;;;14.06;100.00;98140.38;5019839;28;20439;-71
2023/09/02 03:38:49;;;;;;;6.27;4.60;;;14.20;99.90;;;14.09;100.00;98150.75;5021055;28;20552;-70
2023/09/02 03:41:19;;;;;;;4.90;4.23;;;14.20;99.90;;;14.26;100.00;98147.34;5023124;28;20454;-72
2023/09/02 03:43:46;;;;;;;5.63;3.83;;;14.30;99.90;;;14.25;100.00;98148.41;5008980;28;20447;-73
2023/09/02 03:46:14;;;;;;;6.40;4.03;;;14.30;99.90;;;14.17;100.00;98146.88;5013023;27;20456;-70
2023/09/02 03:48:42;;;;;;;4.43;4.03;;;14.30;99.90;;;14.19;100.00;98152.06;5026001;27;20962;-71
2023/09/02 03:51:12;;;;;;;5.10;4.60;;;14.30;99.90;;;14.16;100.00;98146.03;5013662;28;20555;-72
2023/09/02 03:53:40;;;;;;;4.60;4.20;;;14.30;99.90;;;14.15;100.00;98138.13;5013179;28;20455;-71
2023/09/02 03:56:07;;;;;;;4.40;3.90;;;14.30;99.90;;;14.28;100.00;98147.94;5028081;28;20455;-72
2023/09/02 03:58:36;;;;;;;6.47;4.10;;;14.40;99.90;;;14.21;100.00;98144.50;5007922;28;20630;-73
2023/09/02 04:01:04;;;;;;;5.67;5.17;;;14.40;99.90;;;14.16;100.00;98154.19;5008325;28;20560;-71
2023/09/02 04:03:35;;;;;;;6.17;5.50;;;14.30;99.90;;;14.10;100.00;98154.28;5016305;28;20461;-70
2023/09/02 04:06:03;;;;;;;5.13;4.63;;;14.20;99.90;;;14.03;100.00;98159.88;5012720;28;20485;-73
2023/09/02 04:08:33;;;;;;;6.87;5.00;;;14.20;99.90;;;14.15;100.00;98157.97;5008070;28;20523;-70
2023/09/02 04:11:02;;;;;;;7.53;5.10;;;14.20;99.90;;;14.21;100.00;98160.81;5009226;28;20463;-70
2023/09/02 04:13:30;;;;;;;6.17;4.73;;;14.30;99.90;;;14.02;100.00;98153.59;5002165;28;20461;-72
2023/09/02 04:16:02;;;;;;;7.20;4.87;;;14.30;99.90;;;14.00;100.00;98171.16;5008696;28;20520;-72
2023/09/02 04:18:30;;;;;;;7.50;4.70;;;14.20;99.90;;;13.48;100.00;98104.75;5012052;28;20480;-71
2023/09/02 04:20:57;;;;;;;6.10;5.10;;;14.10;99.90;;;13.87;100.00;98167.59;5012078;28;20490;-71
2023/09/02 04:23:24;;;;;;;5.50;5.00;;;14.00;99.90;;;13.83;100.00;98166.41;5014460;28;20446;-70
2023/09/02 04:25:53;;;;;;;5.07;4.67;;;13.90;99.90;;;13.80;100.00;98177.75;5024625;28;20476;-71
2023/09/02 04:28:21;;;;;;;5.17;4.50;;;13.90;99.90;;;13.56;100.00;98160.56;5018927;28;20442;-71
2023/09/02 04:30:49;;;;;;;5.67;4.90;;;13.90;99.90;;;13.65;100.00;98185.50;5013303;28;20516;-71
2023/09/02 04:33:18;;;;;;;4.83;4.43;;;13.80;99.90;;;13.67;100.00;98183.38;5016884;28;20450;-71
2023/09/02 04:35:46;;;;;;;7.93;4.73;;;13.80;99.90;;;13.70;100.00;98180.19;5040597;28;20447;-71
2023/09/02 04:38:14;;;;;;;4.63;4.23;;;13.80;99.90;;;13.81;100.00;98184.84;5017733;28;20447;-71
2023/09/02 04:40:43;;;;;;;5.13;4.17;;;13.90;99.90;;;13.73;100.00;98174.31;5006244;28;20492;-71
2023/09/02 04:43:11;;;;;;;5.40;4.40;;;14.00;99.90;;;13.81;100.00;98195.69;5036215;27;20480;-72
2023/09/02 04:45:41;;;;;;;5.93;4.40;;;14.00;99.90;;;13.91;100.00;98199.75;5004810;28;20474;-72
2023/09/02 04:48:09;;;;;;;4.57;4.17;;;14.00;99.90;;;13.94;100.00;98202.00;5004364;28;20950;-72
2023/09/02 04:50:39;;;;;;;5.30;4.80;;;14.10;99.90;;;14.06;100.00;98197.41;5011696;28;20484;-72
2023/09/02 04:53:09;;;;;;;9.53;4.60;;;14.20;99.90;;;14.31;100.00;98197.22;5013634;28;20456;-70
2023/09/02 04:55:39;;;;;;;5.00;4.50;;;14.50;99.90;;;14.49;100.00;98205.50;5025517;28;20535;-73
2023/09/02 04:58:07;;;;;;;3.80;3.50;;;14.70;99.90;;;14.36;100.00;98210.09;5007350;28;20447;-71
2023/09/02 05:00:37;;;;;;;4.47;4.10;;;14.70;99.90;;;14.60;100.00;98212.81;5010635;28;20458;-72
2023/09/02 05:03:05;;;;;;;4.97;4.10;;;14.80;99.90;;;15.00;100.00;98214.81;5013798;28;20469;-71
2023/09/02 05:05:32;;;;;;;4.83;4.10;;;15.20;99.90;;;15.61;100.00;98210.81;5014967;28;20497;-69
2023/09/02 05:08:02;;;;;;;4.60;3.50;;;15.90;99.90;;;16.17;100.00;98206.66;5024105;27;20961;-73
2023/09/02 05:10:29;;;;;;;3.10;2.90;;;16.50;99.90;;;16.37;96.79;98206.97;5006974;28;20464;-71
2023/09/02 05:12:56;;;;;;;3.40;3.10;;;17.10;99.30;;;16.70;93.66;98227.09;4999691;28;20556;-72
2023/09/02 05:15:24;;;;;;;6.00;3.90;;;17.40;95.30;;;16.71;89.80;98219.75;5019242;28;20806;-71
2023/09/02 05:17:51;;;;;;;3.53;2.90;;;17.70;92.60;;;16.64;90.21;98221.81;5029384;28;20506;-71
2023/09/02 05:20:18;;;;;;;2.83;2.63;;;17.60;92.20;;;16.23;91.93;98222.84;5018967;27;20454;-69
2023/09/02 05:22:46;;;;;;;4.50;3.53;;;17.30;92.20;;;16.62;90.01;98222.09;5029982;28;20464;-70
2023/09/02 05:25:14;;;;;;;6.07;3.20;;;17.30;92.40;;;16.63;89.50;98221.00;5038034;28;20537;-71
2023/09/02 05:27:41;;;;;;;3.53;3.23;;;17.40;92.10;;;17.30;86.46;98232.03;5019900;28;20506;-70
2023/09/02 05:30:09;;;;;;;3.27;2.80;;;17.90;91.90;;;17.33;83.32;98230.66;5008090;28;21101;-74
2023/09/02 05:32:36;;;;;;;4.70;3.00;;;18.30;90.90;;;17.02;84.84;98227.56;5009710;28;20472;-72
2023/09/02 05:35:04;;;;;;;4.40;3.03;;;18.20;90.70;;;16.74;86.16;98232.03;5004401;28;20480;-72
2023/09/02 05:37:32;;;;;;;3.17;2.87;;;17.80;90.80;;;16.13;89.92;98239.03;5040828;28;20436;-72
2023/09/02 05:39:59;;;;;;;3.80;2.83;;;17.20;91.30;;;15.85;91.92;98241.53;4998043;28;20474;-74
2023/09/02 05:42:27;;;;;;;3.50;3.10;;;16.70;92.20;;;15.69;93.90;98239.56;5008884;28;20465;-73
2023/09/02 05:44:54;;;;;;;5.70;2.80;;;16.40;93.50;;;15.65;94.03;98241.13;5000076;28;20565;-78
2023/09/02 05:47:22;;;;;;;4.00;2.87;;;16.20;94.30;;;15.68;95.00;98243.34;5004908;28;20455;-72
2023/09/02 05:49:49;;;;;;;3.30;3.00;;;16.10;94.90;;;15.76;94.73;98251.16;5005812;28;20454;-74
2023/09/02 05:52:16;;;;;;;3.10;2.77;;;16.10;95.30;;;15.97;93.07;98254.25;5013536;28;20460;-72
2023/09/02 05:54:43;;;;;;;3.80;3.50;;;16.20;95.30;;;15.75;93.95;98249.50;5015617;28;20496;-72
2023/09/02 05:57:11;;;;;;;3.83;2.80;;;16.20;95.00;;;15.81;94.06;98251.22;5003073;28;20466;-71
2023/09/02 05:59:39;;;;;;;4.20;3.47;;;16.10;95.10;;;15.99;93.03;98252.13;5003531;28;20443;-72
2023/09/02 06:02:06;;;;;;;3.83;3.53;;;16.30;95.00;;;16.02;93.12;98254.38;5006324;28;20463;-72
2023/09/02 06:04:33;;;;;;;4.07;3.67;;;16.40;94.90;;;16.19;92.79;98243.47;5007586;28;20465;-74
2023/09/02 06:07:01;;;;;;;2.83;2.63;;;16.40;94.90;;;16.39;91.31;98251.16;5007372;28;20475;-74
2023/09/02 06:09:29;;;;;;;4.40;3.10;;;16.60;94.60;;;16.51;90.50;98251.06;5004583;28;20464;-73
2023/09/02 06:11:56;;;;;;;4.23;3.83;;;16.70;94.30;;;16.49;90.67;98252.41;5033083;27;20447;-72
2023/09/02 06:14:24;;;;;;;5.10;4.60;;;16.80;94.00;;;16.41;91.35;98251.75;5014123;28;20489;-74
2023/09/02 06:16:52;;;;;;;4.07;3.67;;;16.80;93.90;;;16.67;89.96;98243.13;5003908;28;20444;-72
2023/09/02 06:19:20;;;;;;;5.53;4.10;;;17.00;94.10;;;16.86;89.32;98249.16;5005027;28;20568;-71
2023/09/02 06:21:47;;;;;;;3.90;3.60;;;17.10;93.80;;;16.89;88.93;98245.91;5005516;28;21318;-73
2023/09/02 06:24:14;;;;;;;4.03;3.47;;;17.20;93.50;;;17.19;87.27;98250.16;5004398;28;20536;-72
2023/09/02 06:26:42;;;;;;;7.27;3.77;;;17.40;93.20;;;17.31;86.58;98251.94;5018958;28;20991;-71
2023/09/02 06:29:09;;;;;;;5.30;3.33;;;17.50;92.80;;;17.21;87.24;98249.91;5005470;28;20904;-73
2023/09/02 06:31:38;;;;;;;3.83;3.50;;;17.50;92.80;;;17.23;87.47;98262.25;5004899;28;21028;-72
2023/09/02 06:34:06;;;;;;;5.37;3.73;;;17.60;92.70;;;17.41;86.56;98261.09;5034009;28;20461;-71
2023/09/02 06:36:33;;;;;;;6.03;3.70;;;17.80;92.50;;;17.45;86.48;98263.34;5005473;28;20468;-72
2023/09/02 06:39:01;;;;;;;5.40;3.03;;;17.80;92.40;;;17.89;84.53;98260.53;5024084;28;20533;-71
2023/09/02 06:41:28;;;;;;;5.03;3.67;;;18.10;92.20;;;18.29;81.91;98255.75;5014242;28;20453;-74
2023/09/02 06:43:55;;;;;;;3.07;2.70;;;18.40;91.80;;;18.35;80.86;98254.69;5024623;28;20460;-72
2023/09/02 06:46:22;;;;;;;4.73;3.00;;;18.60;91.30;;;18.07;82.59;98256.63;5013969;28;20480;-73
2023/09/02 06:48:50;;;;;;;3.13;2.60;;;18.50;91.30;;;18.29;81.34;98254.91;5024044;28;20450;-72
2023/09/02 06:51:19;;;;;;;3.33;3.03;;;18.70;91.20;;;18.17;81.37;98255.91;5022197;28;20988;-73
2023/09/02 06:53:46;;;;;;;3.60;3.17;;;18.60;91.00;;;18.29;81.16;98255.75;5007929;28;20977;-73
2023/09/02 06:56:13;;;;;;;3.97;2.93;;;18.80;90.90;;;18.69;81.02;98256.34;5006880;28;20459;-71
2023/09/02 06:58:42;;;;;;;5.37;3.10;;;19.00;91.10;;;19.23;77.83;98263.53;5019026;28;20540;-74
2023/09/02 07:01:17;;;;;;;3.37;2.83;;;19.40;90.70;;;18.92;78.69;98257.84;5009544;28;20955;-70
2023/09/02 07:03:45;;;;;;;3.60;2.87;;;19.30;90.50;;;19.18;78.09;98271.69;5005961;28;20485;-70
2023/09/02 07:06:13;;;;;;;3.23;2.70;;;19.40;90.50;;;19.60;75.46;98274.63;5060339;27;20463;-72
2023/09/02 07:08:43;;;;;;;8.83;3.93;;;19.80;90.20;;;19.65;74.48;98274.66;5005673;28;20547;-71
2023/09/02 07:11:10;;;;;;;3.07;2.77;;;19.80;89.60;;;19.66;74.92;98277.13;5007331;28;20461;-70
2023/09/02 07:13:37;;;;;;;4.37;3.33;;;20.00;89.70;;;19.67;75.01;98277.94;5031248;28;20490;-71
2023/09/02 07:16:07;;;;;;;3.00;2.80;;;20.00;89.60;;;19.93;73.97;98275.28;5003635;28;20489;-75
2023/09/02 07:18:34;;;;;;;3.70;2.80;;;20.20;89.50;;;20.17;73.89;98286.59;5016085;28;20811;-72
2023/09/02 07:21:04;;;;;;;6.80;2.87;;;20.30;89.60;;;20.28;73.50;98287.44;5016234;28;20459;-72
2023/09/02 07:23:33;;;;;;;4.50;2.80;;;20.40;89.50;;;20.20;73.29;98287.97;5045182;27;20582;-75
2023/09/02 07:26:04;;;;;;;3.97;2.87;;;20.30;89.30;;;19.76;75.93;98298.25;5009480;28;20552;-76
2023/09/02 07:28:36;;;;;;;3.80;3.40;;;20.10;89.60;;;20.01;73.79;98299.47;5028475;27;20468;-79
2023/09/02 07:31:05;;;;;;;3.13;2.50;;;20.10;89.30;;;20.14;73.76;98303.59;5014426;28;20460;-80
2023/09/02 07:33:32;;;;;;;4.33;3.30;;;20.10;89.50;;;19.79;74.57;98297.75;5015700;28;20447;-80
2023/09/02 07:36:07;;;;;;;3.10;2.90;;;20.10;89.10;;;19.72;75.29;98294.41;5003071;28;20953;-80
2023/09/02 07:38:34;;;;;;;5.83;3.40;;;20.00;89.50;;;19.97;74.43;98301.09;5011006;28;20516;-80
2023/09/02 07:41:03;;;;;;;2.80;2.60;;;20.00;89.60;;;20.25;73.37;98298.97;5010373;28;20450;-80
2023/09/02 07:43:30;;;;;;;4.30;3.33;;;20.20;89.50;;;20.00;74.71;98306.03;5026893;27;20791;-80
2023/09/02 07:45:57;;;;;;;3.83;3.03;;;20.30;89.40;;;20.43;73.36;98305.00;5020480;28;20470;-80
2023/09/02 07:48:25;;;;;;;3.40;2.90;;;20.40;89.40;;;20.58;71.96;98293.19;5004793;28;20458;-80
2023/09/02 07:50:52;;;;;;;5.13;3.43;;;20.70;88.80;;;20.69;70.88;98310.47;5018811;28;20473;-79
2023/09/02 07:53:19;;;;;;;4.10;3.50;;;20.80;88.10;;;20.15;72.95;98307.16;5020619;28;20860;-76
2023/09/02 07:55:46;;;;;;;3.73;3.33;;;20.60;88.10;;;20.50;71.80;98300.06;5001998;28;20456;-77
2023/09/02 07:58:15;;;;;;;5.60;3.73;;;20.70;88.20;;;20.66;71.71;98309.13;5008086;28;20451;-78
2023/09/02 08:00:42;;;;;;;3.80;3.40;;;20.80;88.10;;;20.65;70.78;98308.28;5016088;28;20451;-77
2023/09/02 08:03:09;;;;;;;3.80;3.50;;;20.90;87.70;;;20.67;70.68;98317.06;5019677;27;20446;-77
2023/09/02 08:05:40;;;;;;;3.80;3.43;;;20.80;87.60;;;20.89;70.15;98313.28;5003024;28;20528;-78
2023/09/02 08:08:08;;;;;;;3.70;3.40;;;20.90;87.80;;;20.69;70.05;98329.69;5005983;28;20479;-77
2023/09/02 08:10:35;;;;;;;3.50;3.03;;;20.90;87.30;;;20.48;71.03;98329.69;5016389;28;20451;-82
2023/09/02 08:13:03;;;;;;;4.33;3.87;;;20.60;87.60;;;20.67;70.49;98321.75;5015472;28;20790;-83
2023/09/02 08:15:32;;;;;;;3.83;3.53;;;20.80;87.60;;;20.85;70.77;98339.63;5001791;28;20983;-82
2023/09/02 08:18:00;;;;;;;3.20;3.00;;;20.80;87.80;;;21.61;67.96;98333.41;5008389;28;20459;-81
2023/09/02 08:20:29;;;;;;;2.97;2.77;;;21.30;87.40;;;21.88;65.46;98321.25;5034689;27;20454;-82
2023/09/02 08:22:57;;;;;;;3.50;3.20;;;21.80;86.10;;;21.63;66.60;98336.72;5021378;28;20460;-82
2023/09/02 08:25:25;;;;;;;3.20;2.90;;;21.90;85.80;;;21.29;67.53;98340.09;5000811;28;20469;-78
2023/09/02 08:27:52;;;;;;;2.67;2.47;;;21.70;85.60;;;21.20;68.75;98340.69;5012352;28;20467;-80
2023/09/02 08:30:20;;;;;;;2.83;2.63;;;21.50;86.10;;;20.94;68.59;98337.97;5003777;28;20838;-80
2023/09/02 08:32:48;;;;;;;2.90;2.70;;;21.30;85.80;;;21.24;68.57;98340.97;5022900;28;20471;-78
2023/09/02 08:35:15;;;;;;;3.37;3.17;;;21.30;86.50;;;20.90;68.55;98297.59;5000079;28;20811;-78
2023/09/02 08:37:43;;;;;;;3.60;2.90;;;21.20;86.30;;;21.38;68.08;98346.69;5000936;28;20939;-79
2023/09/02 08:40:11;;;;;;;3.40;3.17;;;21.30;86.30;;;21.35;68.05;98341.75;5010910;28;20460;-80
2023/09/02 08:42:40;;;;;;;4.93;3.43;;;21.40;86.10;;;21.11;68.95;98338.78;5013982;27;20830;-80
2023/09/02 08:45:11;;;;;;;4.00;3.70;;;21.30;86.10;;;21.25;68.00;98341.78;5011148;27;20970;-78
2023/09/02 08:47:41;;;;;;;3.00;2.70;;;21.40;85.90;;;21.32;69.03;98342.31;5035859;27;20612;-78
2023/09/02 08:50:11;;;;;;;3.33;3.03;;;21.40;86.60;;;21.46;67.65;98350.78;5041270;27;20454;-80
2023/09/02 08:52:40;;;;;;;3.67;2.63;;;21.50;86.00;;;21.26;69.10;98354.41;5011239;28;20447;-79
2023/09/02 08:55:09;;;;;;;3.27;3.00;;;21.40;86.30;;;21.68;67.60;98350.47;5033078;27;20466;-78
2023/09/02 08:57:38;;;;;;;3.90;3.20;;;21.60;86.20;;;21.70;66.55;98337.25;5040855;28;20441;-79
2023/09/02 09:00:07;;;;;;;3.20;2.73;;;21.70;85.60;;;21.59;66.64;98346.63;5006023;28;20477;-77
2023/09/02 09:02:38;;;;;;;3.90;2.43;;;21.70;85.40;;;21.64;66.27;98330.13;5044306;27;20465;-82
2023/09/02 09:05:09;;;;;;;3.10;2.43;;;21.80;85.40;;;22.00;65.45;98345.69;5050590;27;20975;-74
2023/09/02 09:07:40;;;;;;;2.47;2.30;;;22.00;85.00;;;21.69;67.26;98351.31;5027084;28;20484;-79
2023/09/02 09:10:11;;;;;;;3.20;2.90;;;22.00;85.40;;;21.76;66.44;98363.66;5055978;27;20462;-75
2023/09/02 09:12:38;;;;;;;4.50;2.63;;;22.00;85.00;;;21.17;68.16;98354.97;5038795;28;20447;-79
2023/09/02 09:15:10;;;;;;;2.50;2.30;;;21.70;85.10;;;21.38;68.26;98368.66;5021663;28;20518;-77
2023/09/02 09:17:39;;;;;;;3.90;2.80;;;21.60;85.60;;;21.91;66.50;98353.66;5008181;28;20460;-77
2023/09/02 09:20:07;;;;;;;3.17;2.27;;;21.90;85.50;;;21.82;66.58;98360.88;5009566;28;20513;-78
2023/09/02 09:22:40;;;;;;;3.00;2.37;;;22.00;85.10;;;21.96;65.87;98366.56;5001262;28;20515;-75
2023/09/02 09:25:09;;;;;;;2.83;2.33;;;22.00;85.00;;;21.87;67.15;98369.09;5014238;28;21081;-82
2023/09/02 09:27:36;;;;;;;2.50;2.40;;;22.00;85.30;;;21.98;65.75;98373.44;5008450;28;20491;-81
2023/09/02 09:30:04;;;;;;;2.97;2.60;;;22.10;85.00;;;21.72;67.00;98376.28;5011141;28;20448;-84
2023/09/02 09:32:31;;;;;;;3.53;3.23;;;21.90;85.20;;;21.32;68.09;98391.78;5011535;28;20456;-85
2023/09/02 09:34:59;;;;;;;2.70;2.50;;;21.50;85.50;;;21.40;68.34;98388.44;5019510;28;20461;-83
2023/09/02 09:37:26;;;;;;;2.73;2.53;;;21.40;85.70;;;21.35;68.66;98380.22;5016598;28;20476;-81
2023/09/02 09:39:55;;;;;;;3.43;2.70;;;21.40;85.90;;;21.61;67.80;98391.13;5018856;28;20454;-82
2023/09/02 09:42:35;;;;;;;2.60;2.40;;;21.60;85.70;;;21.82;67.55;98389.19;5035880;27;20554;-83
2023/09/02 09:45:03;;;;;;;2.80;2.57;;;21.90;85.80;;;21.72;66.43;98390.03;5009462;28;20543;-83
2023/09/02 09:47:30;;;;;;;4.30;3.17;;;21.90;85.00;;;21.61;67.22;98391.13;5014143;28;20477;-83
2023/09/02 09:50:15;;;;;;;3.30;3.00;;;21.80;85.30;;;21.44;68.05;98384.03;5043893;27;20477;-85
2023/09/02 09:52:59;;;;;;;2.30;2.20;;;21.60;85.70;;;21.41;69.12;98398.34;5022496;28;20463;-87
2023/09/02 09:55:28;;;;;;;3.03;2.70;;;21.60;85.90;;;21.42;67.97;98401.94;5006594;28;20555;-82
2023/09/02 09:57:57;;;;;;;2.83;2.50;;;21.60;85.40;;;21.43;67.59;98406.31;5024831;28;20971;-85
2023/09/02 10:00:25;;;;;;;6.73;3.03;;;21.60;85.20;;;21.38;68.17;98407.16;5017534;28;20468;-84
2023/09/02 10:02:53;;;;;;;2.93;2.67;;;21.60;85.50;;;21.36;67.53;98390.13;5028173;28;20456;-84
2023/09/02 10:05:27;;;;;;;2.77;2.57;;;21.70;85.10;;;21.55;67.27;98395.00;5006871;28;20495;-79
2023/09/02 10:08:02;;;;;;;2.90;2.47;;;21.70;85.20;;;22.03;66.14;98400.94;5021241;28;20472;-84
2023/09/02 10:10:33;;;;;;;2.40;2.20;;;21.90;85.10;;;22.11;64.96;98349.19;5007180;28;20460;-77
2023/09/02 10:13:01;;;;;;;2.90;2.60;;;22.30;85.10;;;22.32;64.39;98394.72;5012152;28;20509;-79
2023/09/02 10:15:30;;;;;;;2.57;2.47;;;22.40;84.30;;;22.04;65.14;98379.75;5008157;28;20466;-90
2023/09/02 10:17:59;;;;;;;4.40;2.67;;;22.40;84.30;;;22.40;65.00;98389.75;5010872;28;20557;-80
2023/09/02 10:20:29;;;;;;;2.80;2.60;;;22.40;84.70;;;22.58;64.29;98396.53;5000644;28;20506;-77
2023/09/02 10:23:06;;;;;;;2.40;2.20;;;22.60;84.30;;;22.80;63.32;98407.13;5004136;28;20452;-83